sensor_id;sensor_type;location;lat;lon;timestamp;pressure;altitude;pressure_sealevel;temperature;humidity
3796;BME280;1913;50.660;7.834;2022-11-27T00:02:03;98257.44;;;3.20;100.00
3796;BME280;1913;50.660;7.834;2022-11-27T00:04:29;98262.88;;;3.17;100.00
3796;BME280;1913;50.660;7.834;2022-11-27T00:06:54;98266.41;;;3.16;100.00
3796;BME280;1913;50.660;7.834;2022-11-27T00:09:20;98265.03;;;3.12;100.00
3796;BME280;1913;50.660;7.834;2022-11-27T00:11:45;98262.94;;;3.06;100.00
3796;BME280;1913;50.660;7.834;2022-11-27T00:14:13;98260.72;;;3.01;100.00
3796;BME280;1913;50.660;7.834;2022-11-27T00:16:39;98262.00;;;3.07;100.00
3796;BME280;1913;50.660;7.834;2022-11-27T00:19:04;98268.53;;;3.01;100.00
3796;BME280;1913;50.660;7.834;2022-11-27T00:21:33;98261.53;;;3.02;100.00
3796;BME280;1913;50.660;7.834;2022-11-27T00:24:01;98257.75;;;3.06;100.00
3796;BME280;1913;50.660;7.834;2022-11-27T00:26:28;98255.13;;;3.06;100.00
3796;BME280;1913;50.660;7.834;2022-11-27T00:28:55;98253.19;;;2.98;100.00
3796;BME280;1913;50.660;7.834;2022-11-27T00:31:26;98256.75;;;2.97;100.00
3796;BME280;1913;50.660;7.834;2022-11-27T00:34:01;98249.22;;;2.94;100.00
3796;BME280;1913;50.660;7.834;2022-11-27T00:36:28;98248.13;;;2.97;100.00
3796;BME280;1913;50.660;7.834;2022-11-27T00:38:54;98243.38;;;3.02;100.00
3796;BME280;1913;50.660;7.834;2022-11-27T00:41:23;98246.53;;;3.05;100.00
3796;BME280;1913;50.660;7.834;2022-11-27T00:43:49;98240.34;;;2.97;100.00
3796;BME280;1913;50.660;7.834;2022-11-27T00:46:16;98236.38;;;2.93;100.00
3796;BME280;1913;50.660;7.834;2022-11-27T00:48:42;98234.03;;;2.90;100.00
3796;BME280;1913;50.660;7.834;2022-11-27T00:51:10;98231.81;;;2.85;100.00
3796;BME280;1913;50.660;7.834;2022-11-27T00:53:36;98229.91;;;2.87;100.00
3796;BME280;1913;50.660;7.834;2022-11-27T00:56:02;98215.53;;;2.83;100.00
3796;BME280;1913;50.660;7.834;2022-11-27T00:58:27;98216.59;;;2.80;100.00
3796;BME280;1913;50.660;7.834;2022-11-27T01:01:00;98211.66;;;2.77;100.00
3796;BME280;1913;50.660;7.834;2022-11-27T01:03:27;98210.19;;;2.75;100.00
3796;BME280;1913;50.660;7.834;2022-11-27T01:05:53;98209.97;;;2.67;100.00
3796;BME280;1913;50.660;7.834;2022-11-27T01:08:18;98209.59;;;2.71;100.00
3796;BME280;1913;50.660;7.834;2022-11-27T01:10:54;98215.53;;;2.62;100.00
3796;BME280;1913;50.660;7.834;2022-11-27T01:13:29;98217.06;;;2.64;100.00
3796;BME280;1913;50.660;7.834;2022-11-27T01:18:24;98225.84;;;2.73;100.00
3796;BME280;1913;50.660;7.834;2022-11-27T01:20:53;98228.19;;;2.76;100.00
3796;BME280;1913;50.660;7.834;2022-11-27T01:23:19;98228.13;;;2.67;100.00
3796;BME280;1913;50.660;7.834;2022-11-27T01:25:45;98235.56;;;2.71;100.00
3796;BME280;1913;50.660;7.834;2022-11-27T01:28:11;98239.28;;;2.78;100.00
3796;BME280;1913;50.660;7.834;2022-11-27T01:30:37;98231.63;;;2.77;100.00
3796;BME280;1913;50.660;7.834;2022-11-27T01:33:03;98227.53;;;2.74;100.00
3796;BME280;1913;50.660;7.834;2022-11-27T01:35:28;98235.34;;;2.63;100.00
3796;BME280;1913;50.660;7.834;2022-11-27T01:37:54;98228.91;;;2.57;100.00
3796;BME280;1913;50.660;7.834;2022-11-27T01:40:19;98225.59;;;2.55;100.00
3796;BME280;1913;50.660;7.834;2022-11-27T01:42:45;98215.47;;;2.52;100.00
3796;BME280;1913;50.660;7.834;2022-11-27T01:45:15;98216.75;;;2.58;100.00
3796;BME280;1913;50.660;7.834;2022-11-27T01:47:48;98219.50;;;2.56;100.00
3796;BME280;1913;50.660;7.834;2022-11-27T01:50:18;98217.00;;;2.55;100.00
3796;BME280;1913;50.660;7.834;2022-11-27T01:52:48;98210.84;;;2.56;100.00
3796;BME280;1913;50.660;7.834;2022-11-27T01:55:31;98212.13;;;2.61;100.00
3796;BME280;1913;50.660;7.834;2022-11-27T01:58:15;98210.09;;;2.65;100.00
3796;BME280;1913;50.660;7.834;2022-11-27T02:00:43;98195.91;;;2.69;100.00
3796;BME280;1913;50.660;7.834;2022-11-27T02:03:08;98203.13;;;2.66;100.00
3796;BME280;1913;50.660;7.834;2022-11-27T02:05:34;98206.75;;;2.74;100.00
3796;BME280;1913;50.660;7.834;2022-11-27T02:08:04;98208.78;;;2.71;100.00
3796;BME280;1913;50.660;7.834;2022-11-27T02:10:50;98204.66;;;2.68;100.00
3796;BME280;1913;50.660;7.834;2022-11-27T02:13:28;98201.25;;;2.68;100.00
3796;BME280;1913;50.660;7.834;2022-11-27T02:29:55;98161.78;;;2.43;100.00
3796;BME280;1913;50.660;7.834;2022-11-27T02:32:33;98161.44;;;2.36;100.00
3796;BME280;1913;50.660;7.834;2022-11-27T02:35:38;98161.03;;;2.31;100.00
3796;BME280;1913;50.660;7.834;2022-11-27T02:38:20;98156.41;;;2.35;100.00
3796;BME280;1913;50.660;7.834;2022-11-27T02:40:53;98164.53;;;2.30;100.00
3796;BME280;1913;50.660;7.834;2022-11-27T02:43:27;98152.28;;;2.32;100.00
3796;BME280;1913;50.660;7.834;2022-11-27T02:45:56;98163.88;;;2.28;100.00
3796;BME280;1913;50.660;7.834;2022-11-27T02:48:28;98165.06;;;2.24;100.00
3796;BME280;1913;50.660;7.834;2022-11-27T02:50:55;98162.81;;;2.20;100.00
3796;BME280;1913;50.660;7.834;2022-11-27T02:53:29;98155.63;;;2.23;100.00
3796;BME280;1913;50.660;7.834;2022-11-27T02:55:56;98145.00;;;2.26;100.00
3796;BME280;1913;50.660;7.834;2022-11-27T02:58:25;98140.78;;;2.25;100.00
3796;BME280;1913;50.660;7.834;2022-11-27T03:00:51;98140.44;;;2.19;100.00
3796;BME280;1913;50.660;7.834;2022-11-27T03:03:21;98136.66;;;2.23;100.00
3796;BME280;1913;50.660;7.834;2022-11-27T03:05:51;98135.84;;;2.22;100.00
3796;BME280;1913;50.660;7.834;2022-11-27T03:13:15;98133.63;;;2.18;100.00
3796;BME280;1913;50.660;7.834;2022-11-27T03:16:00;98125.69;;;2.19;100.00
3796;BME280;1913;50.660;7.834;2022-11-27T03:18:44;98120.75;;;2.16;100.00
3796;BME280;1913;50.660;7.834;2022-11-27T03:21:39;98110.16;;;2.19;100.00
3796;BME280;1913;50.660;7.834;2022-11-27T03:24:06;98101.13;;;2.13;100.00
3796;BME280;1913;50.660;7.834;2022-11-27T03:26:32;98086.38;;;2.14;100.00
3796;BME280;1913;50.660;7.834;2022-11-27T03:28:59;98084.16;;;2.09;100.00
3796;BME280;1913;50.660;7.834;2022-11-27T03:31:26;98085.81;;;2.10;100.00
3796;BME280;1913;50.660;7.834;2022-11-27T03:33:53;98077.91;;;2.12;100.00
3796;BME280;1913;50.660;7.834;2022-11-27T03:36:20;98087.19;;;2.14;100.00
3796;BME280;1913;50.660;7.834;2022-11-27T03:38:46;98087.31;;;2.13;100.00
3796;BME280;1913;50.660;7.834;2022-11-27T03:57:32;98087.88;;;2.16;100.00
3796;BME280;1913;50.660;7.834;2022-11-27T04:00:01;98078.22;;;2.19;100.00
3796;BME280;1913;50.660;7.834;2022-11-27T04:02:30;98083.97;;;2.22;100.00
3796;BME280;1913;50.660;7.834;2022-11-27T04:05:02;98073.59;;;2.22;100.00
3796;BME280;1913;50.660;7.834;2022-11-27T04:07:28;98067.19;;;2.26;100.00
3796;BME280;1913;50.660;7.834;2022-11-27T04:09:53;98070.19;;;2.22;100.00
3796;BME280;1913;50.660;7.834;2022-11-27T04:12:19;98064.19;;;2.31;100.00
3796;BME280;1913;50.660;7.834;2022-11-27T04:14:44;98073.34;;;2.25;100.00
3796;BME280;1913;50.660;7.834;2022-11-27T04:17:10;98076.50;;;2.29;100.00
3796;BME280;1913;50.660;7.834;2022-11-27T04:19:35;98075.44;;;2.31;100.00
3796;BME280;1913;50.660;7.834;2022-11-27T04:22:00;98078.59;;;2.35;100.00
3796;BME280;1913;50.660;7.834;2022-11-27T04:24:26;98076.56;;;2.38;100.00
3796;BME280;1913;50.660;7.834;2022-11-27T04:26:51;98084.75;;;2.44;100.00
3796;BME280;1913;50.660;7.834;2022-11-27T04:29:16;98076.72;;;2.47;100.00
3796;BME280;1913;50.660;7.834;2022-11-27T04:31:42;98090.00;;;2.53;100.00
3796;BME280;1913;50.660;7.834;2022-11-27T04:34:07;98085.50;;;2.55;100.00
3796;BME280;1913;50.660;7.834;2022-11-27T04:36:32;98093.19;;;2.67;100.00
3796;BME280;1913;50.660;7.834;2022-11-27T04:38:58;98098.38;;;2.67;100.00
3796;BME280;1913;50.660;7.834;2022-11-27T04:41:23;98099.78;;;2.80;100.00
3796;BME280;1913;50.660;7.834;2022-11-27T04:43:48;98101.31;;;2.83;100.00
3796;BME280;1913;50.660;7.834;2022-11-27T04:46:14;98086.31;;;2.86;100.00
3796;BME280;1913;50.660;7.834;2022-11-27T04:48:39;98082.47;;;2.91;100.00
3796;BME280;1913;50.660;7.834;2022-11-27T04:51:05;98082.94;;;2.96;100.00
3796;BME280;1913;50.660;7.834;2022-11-27T04:53:30;98079.09;;;3.00;100.00
3796;BME280;1913;50.660;7.834;2022-11-27T04:55:55;98086.34;;;3.06;100.00
3796;BME280;1913;50.660;7.834;2022-11-27T04:58:21;98082.66;;;3.08;100.00
3796;BME280;1913;50.660;7.834;2022-11-27T05:00:46;98079.56;;;3.24;100.00
3796;BME280;1913;50.660;7.834;2022-11-27T05:03:11;98080.50;;;3.14;100.00
3796;BME280;1913;50.660;7.834;2022-11-27T05:05:37;98073.66;;;3.12;100.00
3796;BME280;1913;50.660;7.834;2022-11-27T05:08:02;98064.09;;;3.23;100.00
3796;BME280;1913;50.660;7.834;2022-11-27T05:10:28;98073.13;;;3.19;100.00
3796;BME280;1913;50.660;7.834;2022-11-27T05:12:53;98060.28;;;3.17;100.00
3796;BME280;1913;50.660;7.834;2022-11-27T05:15:18;98052.06;;;3.22;100.00
3796;BME280;1913;50.660;7.834;2022-11-27T05:17:44;98039.25;;;3.20;100.00
3796;BME280;1913;50.660;7.834;2022-11-27T05:20:12;98039.25;;;3.20;100.00
3796;BME280;1913;50.660;7.834;2022-11-27T05:22:37;98038.13;;;3.23;100.00
3796;BME280;1913;50.660;7.834;2022-11-27T05:25:03;98031.03;;;3.25;100.00
3796;BME280;1913;50.660;7.834;2022-11-27T05:27:28;98025.56;;;3.28;100.00
3796;BME280;1913;50.660;7.834;2022-11-27T05:29:54;98025.03;;;3.24;100.00
3796;BME280;1913;50.660;7.834;2022-11-27T05:32:19;98010.25;;;3.25;100.00
3796;BME280;1913;50.660;7.834;2022-11-27T05:34:44;98011.63;;;3.29;100.00
3796;BME280;1913;50.660;7.834;2022-11-27T05:37:10;98004.78;;;3.28;100.00
3796;BME280;1913;50.660;7.834;2022-11-27T05:39:37;98000.25;;;3.30;100.00
3796;BME280;1913;50.660;7.834;2022-11-27T05:42:02;98001.66;;;3.24;100.00
3796;BME280;1913;50.660;7.834;2022-11-27T05:44:28;98008.06;;;3.30;100.00
3796;BME280;1913;50.660;7.834;2022-11-27T05:46:53;97999.44;;;3.29;100.00
3796;BME280;1913;50.660;7.834;2022-11-27T05:49:18;97994.25;;;3.29;100.00
3796;BME280;1913;50.660;7.834;2022-11-27T05:51:44;97992.34;;;3.31;100.00
3796;BME280;1913;50.660;7.834;2022-11-27T05:54:09;97986.19;;;3.32;100.00
3796;BME280;1913;50.660;7.834;2022-11-27T05:56:35;97984.41;;;3.33;100.00
3796;BME280;1913;50.660;7.834;2022-11-27T05:59:00;97978.41;;;3.32;100.00
3796;BME280;1913;50.660;7.834;2022-11-27T06:01:25;97983.75;;;3.31;100.00
3796;BME280;1913;50.660;7.834;2022-11-27T06:03:51;97993.16;;;3.32;100.00
3796;BME280;1913;50.660;7.834;2022-11-27T06:06:18;97974.16;;;3.31;100.00
3796;BME280;1913;50.660;7.834;2022-11-27T06:08:44;97973.91;;;3.34;100.00
3796;BME280;1913;50.660;7.834;2022-11-27T06:11:12;97967.03;;;3.33;100.00
3796;BME280;1913;50.660;7.834;2022-11-27T06:13:38;97962.66;;;3.34;100.00
3796;BME280;1913;50.660;7.834;2022-11-27T06:16:10;97963.19;;;3.38;100.00
3796;BME280;1913;50.660;7.834;2022-11-27T06:18:36;97964.03;;;3.38;100.00
3796;BME280;1913;50.660;7.834;2022-11-27T06:21:05;97966.09;;;3.34;100.00
3796;BME280;1913;50.660;7.834;2022-11-27T06:23:31;97959.66;;;3.39;100.00
3796;BME280;1913;50.660;7.834;2022-11-27T06:25:56;97967.84;;;3.34;100.00
3796;BME280;1913;50.660;7.834;2022-11-27T06:28:21;97950.63;;;3.33;100.00
3796;BME280;1913;50.660;7.834;2022-11-27T06:30:47;97957.47;;;3.34;100.00
3796;BME280;1913;50.660;7.834;2022-11-27T06:33:12;97932.06;;;3.28;100.00
3796;BME280;1913;50.660;7.834;2022-11-27T06:35:37;97946.81;;;3.27;100.00
3796;BME280;1913;50.660;7.834;2022-11-27T06:38:03;97945.16;;;3.26;100.00
3796;BME280;1913;50.660;7.834;2022-11-27T06:40:28;97946.56;;;3.21;100.00
3796;BME280;1913;50.660;7.834;2022-11-27T06:42:53;97952.41;;;3.23;100.00
3796;BME280;1913;50.660;7.834;2022-11-27T06:45:19;97959.38;;;3.22;100.00
3796;BME280;1913;50.660;7.834;2022-11-27T06:47:44;97952.03;;;3.27;100.00
3796;BME280;1913;50.660;7.834;2022-11-27T06:50:10;97958.97;;;3.27;100.00
3796;BME280;1913;50.660;7.834;2022-11-27T06:52:35;97966.09;;;3.25;100.00
3796;BME280;1913;50.660;7.834;2022-11-27T06:55:00;97958.97;;;3.27;100.00
3796;BME280;1913;50.660;7.834;2022-11-27T06:57:26;97962.69;;;3.24;100.00
3796;BME280;1913;50.660;7.834;2022-11-27T06:59:51;97954.63;;;3.27;100.00
3796;BME280;1913;50.660;7.834;2022-11-27T07:02:17;97935.59;;;3.27;100.00
3796;BME280;1913;50.660;7.834;2022-11-27T07:04:42;97926.84;;;3.18;100.00
3796;BME280;1913;50.660;7.834;2022-11-27T07:07:09;97912.63;;;3.22;100.00
3796;BME280;1913;50.660;7.834;2022-11-27T07:09:34;97922.34;;;3.20;100.00
3796;BME280;1913;50.660;7.834;2022-11-27T07:12:00;97919.47;;;3.23;100.00
3796;BME280;1913;50.660;7.834;2022-11-27T07:14:25;97902.66;;;3.27;100.00
3796;BME280;1913;50.660;7.834;2022-11-27T07:16:51;97918.78;;;3.31;100.00
3796;BME280;1913;50.660;7.834;2022-11-27T07:19:16;97915.34;;;3.30;100.00
3796;BME280;1913;50.660;7.834;2022-11-27T07:21:41;97922.59;;;3.36;100.00
3796;BME280;1913;50.660;7.834;2022-11-27T07:24:07;97916.97;;;3.41;100.00
3796;BME280;1913;50.660;7.834;2022-11-27T07:26:32;97922.72;;;3.45;100.00
3796;BME280;1913;50.660;7.834;2022-11-27T07:28:58;97923.03;;;3.42;100.00
3796;BME280;1913;50.660;7.834;2022-11-27T07:31:25;97915.63;;;3.47;100.00
3796;BME280;1913;50.660;7.834;2022-11-27T07:33:52;97924.38;;;3.46;100.00
3796;BME280;1913;50.660;7.834;2022-11-27T07:36:30;97916.44;;;3.47;100.00
3796;BME280;1913;50.660;7.834;2022-11-27T07:38:55;97916.59;;;3.46;100.00
3796;BME280;1913;50.660;7.834;2022-11-27T07:41:22;97907.25;;;3.53;100.00
3796;BME280;1913;50.660;7.834;2022-11-27T07:43:48;97928.44;;;3.58;100.00
3796;BME280;1913;50.660;7.834;2022-11-27T07:46:21;97903.69;;;3.64;100.00
3796;BME280;1913;50.660;7.834;2022-11-27T07:48:47;97914.19;;;3.62;100.00
3796;BME280;1913;50.660;7.834;2022-11-27T07:51:14;97917.22;;;3.67;100.00
3796;BME280;1913;50.660;7.834;2022-11-27T07:53:40;97927.88;;;3.74;100.00
3796;BME280;1913;50.660;7.834;2022-11-27T07:56:07;97908.16;;;3.71;100.00
3796;BME280;1913;50.660;7.834;2022-11-27T07:58:33;97924.84;;;3.78;100.00
3796;BME280;1913;50.660;7.834;2022-11-27T08:00:58;97904.16;;;3.77;100.00
3796;BME280;1913;50.660;7.834;2022-11-27T08:03:24;97900.44;;;3.89;100.00
3796;BME280;1913;50.660;7.834;2022-11-27T08:05:50;97896.63;;;3.83;100.00
3796;BME280;1913;50.660;7.834;2022-11-27T08:08:15;97896.88;;;3.90;100.00
3796;BME280;1913;50.660;7.834;2022-11-27T08:10:40;97888.25;;;3.90;100.00
3796;BME280;1913;50.660;7.834;2022-11-27T08:13:06;97897.31;;;3.86;100.00
3796;BME280;1913;50.660;7.834;2022-11-27T08:15:32;97891.56;;;3.92;100.00
3796;BME280;1913;50.660;7.834;2022-11-27T08:17:58;97899.47;;;3.90;100.00
3796;BME280;1913;50.660;7.834;2022-11-27T08:20:23;97877.16;;;3.97;100.00
3796;BME280;1913;50.660;7.834;2022-11-27T08:22:49;97877.59;;;3.93;100.00
3796;BME280;1913;50.660;7.834;2022-11-27T08:25:15;97878.31;;;3.85;100.00
3796;BME280;1913;50.660;7.834;2022-11-27T08:27:41;97886.13;;;3.75;100.00
3796;BME280;1913;50.660;7.834;2022-11-27T08:30:07;97882.56;;;3.76;100.00
3796;BME280;1913;50.660;7.834;2022-11-27T08:32:32;97883.53;;;3.75;100.00
3796;BME280;1913;50.660;7.834;2022-11-27T08:34:58;97884.22;;;3.77;100.00
3796;BME280;1913;50.660;7.834;2022-11-27T08:37:23;97888.56;;;3.77;100.00
3796;BME280;1913;50.660;7.834;2022-11-27T08:39:49;97866.94;;;3.86;100.00
3796;BME280;1913;50.660;7.834;2022-11-27T08:42:14;97869.34;;;3.97;100.00
3796;BME280;1913;50.660;7.834;2022-11-27T08:44:40;97890.09;;;4.07;100.00
3796;BME280;1913;50.660;7.834;2022-11-27T08:47:06;97863.28;;;4.34;100.00
3796;BME280;1913;50.660;7.834;2022-11-27T08:49:31;97866.63;;;4.62;100.00
3796;BME280;1913;50.660;7.834;2022-11-27T08:51:56;97865.97;;;4.96;100.00
3796;BME280;1913;50.660;7.834;2022-11-27T08:54:22;97862.59;;;5.03;100.00
3796;BME280;1913;50.660;7.834;2022-11-27T08:56:47;97854.47;;;5.24;100.00
3796;BME280;1913;50.660;7.834;2022-11-27T08:59:13;97850.50;;;5.38;100.00
3796;BME280;1913;50.660;7.834;2022-11-27T09:01:38;97846.66;;;5.24;100.00
3796;BME280;1913;50.660;7.834;2022-11-27T09:04:04;97828.44;;;5.07;100.00
3796;BME280;1913;50.660;7.834;2022-11-27T09:06:31;97822.28;;;4.90;100.00
3796;BME280;1913;50.660;7.834;2022-11-27T09:08:59;97821.66;;;4.70;100.00
3796;BME280;1913;50.660;7.834;2022-11-27T09:11:25;97842.25;;;4.63;100.00
3796;BME280;1913;50.660;7.834;2022-11-27T09:13:51;97811.81;;;4.64;100.00
3796;BME280;1913;50.660;7.834;2022-11-27T09:16:19;97813.47;;;4.65;100.00
3796;BME280;1913;50.660;7.834;2022-11-27T09:18:46;97817.38;;;4.69;100.00
3796;BME280;1913;50.660;7.834;2022-11-27T09:21:14;97806.91;;;4.61;100.00
3796;BME280;1913;50.660;7.834;2022-11-27T09:23:39;97809.16;;;4.73;100.00
3796;BME280;1913;50.660;7.834;2022-11-27T09:26:10;97814.25;;;4.83;100.00
3796;BME280;1913;50.660;7.834;2022-11-27T09:28:37;97807.78;;;4.87;100.00
3796;BME280;1913;50.660;7.834;2022-11-27T09:31:05;97805.75;;;4.99;100.00
3796;BME280;1913;50.660;7.834;2022-11-27T09:33:32;97808.06;;;5.02;100.00
3796;BME280;1913;50.660;7.834;2022-11-27T09:36:11;97804.84;;;5.08;100.00
3796;BME280;1913;50.660;7.834;2022-11-27T09:38:38;97792.09;;;5.23;100.00
3796;BME280;1913;50.660;7.834;2022-11-27T09:44:33;97792.84;;;5.15;100.00
3796;BME280;1913;50.660;7.834;2022-11-27T09:47:20;97778.19;;;5.14;100.00
3796;BME280;1913;50.660;7.834;2022-11-27T09:49:56;97808.06;;;5.02;100.00
3796;BME280;1913;50.660;7.834;2022-11-27T09:52:36;97773.53;;;5.00;100.00
3796;BME280;1913;50.660;7.834;2022-11-27T09:55:14;97786.22;;;4.95;100.00
3796;BME280;1913;50.660;7.834;2022-11-27T09:57:41;97765.38;;;4.95;100.00
3796;BME280;1913;50.660;7.834;2022-11-27T10:00:16;97785.94;;;5.06;100.00
3796;BME280;1913;50.660;7.834;2022-11-27T10:02:43;97784.50;;;5.12;100.00
3796;BME280;1913;50.660;7.834;2022-11-27T10:05:21;97784.09;;;5.24;100.00
3796;BME280;1913;50.660;7.834;2022-11-27T10:18:38;97761.66;;;5.32;100.00
3796;BME280;1913;50.660;7.834;2022-11-27T10:21:21;97758.47;;;5.38;100.00
3796;BME280;1913;50.660;7.834;2022-11-27T10:24:04;97756.06;;;5.52;100.00
3796;BME280;1913;50.660;7.834;2022-11-27T10:31:39;97745.25;;;5.73;100.00
3796;BME280;1913;50.660;7.834;2022-11-27T10:36:47;97744.25;;;5.74;100.00
3796;BME280;1913;50.660;7.834;2022-11-27T10:39:35;97748.19;;;5.79;100.00
3796;BME280;1913;50.660;7.834;2022-11-27T10:45:24;97762.72;;;5.89;100.00
3796;BME280;1913;50.660;7.834;2022-11-27T10:47:50;97763.50;;;5.82;100.00
3796;BME280;1913;50.660;7.834;2022-11-27T10:50:17;97759.34;;;5.97;100.00
3796;BME280;1913;50.660;7.834;2022-11-27T10:53:00;97756.72;;;5.97;100.00
3796;BME280;1913;50.660;7.834;2022-11-27T10:58:31;97750.00;;;5.86;100.00
3796;BME280;1913;50.660;7.834;2022-11-27T11:01:04;97754.22;;;5.79;100.00
3796;BME280;1913;50.660;7.834;2022-11-27T11:03:31;97762.53;;;5.83;100.00
3796;BME280;1913;50.660;7.834;2022-11-27T11:05:59;97744.19;;;6.00;100.00
3796;BME280;1913;50.660;7.834;2022-11-27T11:08:25;97737.84;;;6.11;100.00
3796;BME280;1913;50.660;7.834;2022-11-27T11:10:57;97744.72;;;6.20;100.00
3796;BME280;1913;50.660;7.834;2022-11-27T11:13:25;97730.38;;;6.16;100.00
3796;BME280;1913;50.660;7.834;2022-11-27T11:18:40;97732.19;;;6.48;100.00
3796;BME280;1913;50.660;7.834;2022-11-27T11:21:05;97731.53;;;6.63;100.00
3796;BME280;1913;50.660;7.834;2022-11-27T11:23:38;97726.66;;;6.60;100.00
3796;BME280;1913;50.660;7.834;2022-11-27T11:26:24;97728.78;;;6.48;100.00
3796;BME280;1913;50.660;7.834;2022-11-27T11:28:56;97714.91;;;6.47;100.00
3796;BME280;1913;50.660;7.834;2022-11-27T11:31:35;97708.06;;;6.55;100.00
3796;BME280;1913;50.660;7.834;2022-11-27T11:34:23;97719.97;;;6.65;100.00
3796;BME280;1913;50.660;7.834;2022-11-27T11:37:24;97698.03;;;6.83;100.00
3796;BME280;1913;50.660;7.834;2022-11-27T11:42:35;97689.28;;;7.23;100.00
3796;BME280;1913;50.660;7.834;2022-11-27T11:47:52;97682.41;;;7.22;100.00
3796;BME280;1913;50.660;7.834;2022-11-27T11:58:57;97656.28;;;8.07;100.00
3796;BME280;1913;50.660;7.834;2022-11-27T12:12:05;97650.78;;;7.09;100.00
3796;BME280;1913;50.660;7.834;2022-11-27T12:14:55;97637.16;;;6.90;100.00
3796;BME280;1913;50.660;7.834;2022-11-27T12:20:37;97620.84;;;6.80;100.00
3796;BME280;1913;50.660;7.834;2022-11-27T12:47:55;97586.66;;;6.42;100.00
3796;BME280;1913;50.660;7.834;2022-11-27T12:50:49;97582.41;;;6.41;100.00
3796;BME280;1913;50.660;7.834;2022-11-27T12:53:35;97579.97;;;6.48;100.00
3796;BME280;1913;50.660;7.834;2022-11-27T12:56:20;97576.19;;;6.51;100.00
3796;BME280;1913;50.660;7.834;2022-11-27T13:01:49;97589.28;;;6.34;100.00
3796;BME280;1913;50.660;7.834;2022-11-27T13:04:23;97582.44;;;6.25;100.00
3796;BME280;1913;50.660;7.834;2022-11-27T13:07:11;97563.03;;;6.11;100.00
3796;BME280;1913;50.660;7.834;2022-11-27T13:10:03;97548.19;;;6.12;100.00
3796;BME280;1913;50.660;7.834;2022-11-27T13:12:59;97541.88;;;5.98;100.00
3796;BME280;1913;50.660;7.834;2022-11-27T13:16:06;97528.47;;;6.01;100.00
3796;BME280;1913;50.660;7.834;2022-11-27T13:18:43;97511.50;;;5.89;100.00
3796;BME280;1913;50.660;7.834;2022-11-27T13:21:15;97508.56;;;5.92;100.00
3796;BME280;1913;50.660;7.834;2022-11-27T13:23:42;97501.41;;;5.86;100.00
3796;BME280;1913;50.660;7.834;2022-11-27T13:26:18;97490.66;;;5.72;100.00
3796;BME280;1913;50.660;7.834;2022-11-27T13:31:43;97477.47;;;5.66;100.00
3796;BME280;1913;50.660;7.834;2022-11-27T13:34:20;97471.09;;;5.60;100.00
3796;BME280;1913;50.660;7.834;2022-11-27T13:36:54;97465.41;;;5.57;100.00
3796;BME280;1913;50.660;7.834;2022-11-27T13:42:18;97429.69;;;5.65;100.00
3796;BME280;1913;50.660;7.834;2022-11-27T13:44:54;97418.19;;;5.51;100.00
3796;BME280;1913;50.660;7.834;2022-11-27T13:47:22;97420.94;;;5.50;100.00
3796;BME280;1913;50.660;7.834;2022-11-27T13:50:19;97408.22;;;5.47;100.00
3796;BME280;1913;50.660;7.834;2022-11-27T13:55:27;97404.00;;;5.38;100.00
3796;BME280;1913;50.660;7.834;2022-11-27T13:57:54;97391.47;;;5.41;100.00
3796;BME280;1913;50.660;7.834;2022-11-27T14:00:36;97378.91;;;5.37;100.00
3796;BME280;1913;50.660;7.834;2022-11-27T14:03:03;97376.31;;;5.37;100.00
3796;BME280;1913;50.660;7.834;2022-11-27T14:05:35;97369.81;;;5.33;100.00
3796;BME280;1913;50.660;7.834;2022-11-27T14:08:01;97372.41;;;5.33;100.00
3796;BME280;1913;50.660;7.834;2022-11-27T14:10:29;97383.00;;;5.31;100.00
3796;BME280;1913;50.660;7.834;2022-11-27T14:13:01;97374.69;;;5.36;100.00
3796;BME280;1913;50.660;7.834;2022-11-27T14:15:28;97366.56;;;5.31;100.00
3796;BME280;1913;50.660;7.834;2022-11-27T14:20:53;97363.13;;;5.38;100.00
3796;BME280;1913;50.660;7.834;2022-11-27T14:28:30;97371.44;;;5.34;100.00
3796;BME280;1913;50.660;7.834;2022-11-27T14:30:58;97370.47;;;5.35;100.00
3796;BME280;1913;50.660;7.834;2022-11-27T14:33:33;97385.09;;;5.36;100.00
3796;BME280;1913;50.660;7.834;2022-11-27T14:36:03;97391.13;;;5.36;100.00
3796;BME280;1913;50.660;7.834;2022-11-27T14:38:31;97392.09;;;5.43;100.00
3796;BME280;1913;50.660;7.834;2022-11-27T14:41:09;97389.81;;;5.40;100.00
3796;BME280;1913;50.660;7.834;2022-11-27T14:43:35;97404.00;;;5.38;100.00
3796;BME280;1913;50.660;7.834;2022-11-27T14:46:01;97400.59;;;5.29;100.00
3796;BME280;1913;50.660;7.834;2022-11-27T14:48:31;97409.72;;;5.25;100.00
3796;BME280;1913;50.660;7.834;2022-11-27T14:50:59;97401.41;;;5.21;100.00
3796;BME280;1913;50.660;7.834;2022-11-27T14:53:26;97382.50;;;5.19;100.00
3796;BME280;1913;50.660;7.834;2022-11-27T14:55:54;97409.53;;;5.18;100.00
3796;BME280;1913;50.660;7.834;2022-11-27T14:58:29;97409.72;;;5.17;100.00
3796;BME280;1913;50.660;7.834;2022-11-27T15:01:04;97405.31;;;5.17;100.00
3796;BME280;1913;50.660;7.834;2022-11-27T15:03:31;97390.50;;;5.10;100.00
3796;BME280;1913;50.660;7.834;2022-11-27T15:06:02;97388.38;;;5.13;100.00
3796;BME280;1913;50.660;7.834;2022-11-27T15:08:32;97384.97;;;5.13;100.00
3796;BME280;1913;50.660;7.834;2022-11-27T15:10:59;97404.34;;;5.10;100.00
3796;BME280;1913;50.660;7.834;2022-11-27T15:13:28;97404.81;;;5.14;100.00
3796;BME280;1913;50.660;7.834;2022-11-27T15:18:23;97398.81;;;5.13;100.00
3796;BME280;1913;50.660;7.834;2022-11-27T15:20:50;97387.72;;;5.11;100.00
3796;BME280;1913;50.660;7.834;2022-11-27T15:23:19;97411.97;;;5.12;100.00
3796;BME280;1913;50.660;7.834;2022-11-27T15:26:09;97408.56;;;5.19;100.00
3796;BME280;1913;50.660;7.834;2022-11-27T15:28:54;97405.00;;;5.20;100.00
3796;BME280;1913;50.660;7.834;2022-11-27T15:36:23;97403.88;;;5.23;100.00
3796;BME280;1913;50.660;7.834;2022-11-27T15:38:48;97398.63;;;5.15;100.00
3796;BME280;1913;50.660;7.834;2022-11-27T15:41:27;97396.84;;;5.23;100.00
3796;BME280;1913;50.660;7.834;2022-11-27T15:43:54;97419.47;;;5.15;100.00
3796;BME280;1913;50.660;7.834;2022-11-27T15:46:29;97417.38;;;5.26;100.00
3796;BME280;1913;50.660;7.834;2022-11-27T15:48:57;97405.78;;;5.29;100.00
3796;BME280;1913;50.660;7.834;2022-11-27T15:51:22;97410.03;;;5.14;100.00
3796;BME280;1913;50.660;7.834;2022-11-27T15:53:48;97401.09;;;5.16;100.00
3796;BME280;1913;50.660;7.834;2022-11-27T15:56:14;97401.41;;;5.13;100.00
3796;BME280;1913;50.660;7.834;2022-11-27T15:58:40;97396.19;;;5.13;100.00
3796;BME280;1913;50.660;7.834;2022-11-27T16:01:06;97393.75;;;5.12;100.00
3796;BME280;1913;50.660;7.834;2022-11-27T16:03:32;97398.13;;;5.19;100.00